Time;durP1;ratioP1;P1;durP2;ratioP2;P2;SDS_P1;SDS_P2;PMS_P1;PMS_P2;Temp;Humidity;BMP_temperature;BMP_pressure;BME280_temperature;BME280_humidity;BME280_pressure;Samples;Min_cycle;Max_cycle;Signal;HPM_P1;HPM_P2
2022/10/16 00:01:20;;;;;;;1.30;1.20;;;20.40;48.90;;;;;;4974620;28;21055;-79
2022/10/16 00:03:47;;;;;;;1.23;1.10;;;20.60;48.40;;;;;;4976855;28;20436;-78
2022/10/16 00:06:14;;;;;;;1.60;1.30;;;20.60;48.20;;;;;;4975868;28;20455;-80
2022/10/16 00:08:40;;;;;;;1.40;1.40;;;20.60;49.00;;;;;;4977447;28;20461;-79
2022/10/16 00:11:12;;;;;;;1.30;1.23;;;20.50;48.40;;;;;;4974180;28;20478;-79
2022/10/16 00:13:39;;;;;;;1.30;1.20;;;20.50;48.90;;;;;;4974551;28;20854;-79
2022/10/16 00:16:05;;;;;;;1.50;1.43;;;20.40;49.50;;;;;;4973710;28;20999;-79
2022/10/16 00:18:32;;;;;;;1.40;1.20;;;20.30;49.70;;;;;;4975331;28;20425;-79
2022/10/16 00:21:25;;;;;;;1.30;1.27;;;20.10;49.70;;;;;;4976165;28;20450;-78
2022/10/16 00:23:52;;;;;;;1.30;1.20;;;20.10;50.10;;;;;;4974092;28;20449;-77
2022/10/16 00:26:18;;;;;;;1.30;1.20;;;20.20;49.70;;;;;;4973754;28;20503;-78
2022/10/16 00:28:51;;;;;;;1.30;1.20;;;20.20;48.80;;;;;;4973656;28;20435;-80
2022/10/16 00:31:19;;;;;;;1.30;1.10;;;20.20;49.70;;;;;;4973900;28;20476;-79
2022/10/16 00:33:45;;;;;;;1.30;1.20;;;20.10;50.00;;;;;;4974588;28;20437;-80
2022/10/16 00:36:13;;;;;;;1.30;1.20;;;20.30;48.10;;;;;;4973680;28;20455;-79
2022/10/16 00:38:40;;;;;;;1.30;1.10;;;20.00;48.90;;;;;;4976983;28;20729;-80
2022/10/16 00:41:09;;;;;;;1.30;1.20;;;20.00;49.40;;;;;;4973310;28;20597;-78
2022/10/16 00:43:42;;;;;;;1.30;1.10;;;20.00;49.00;;;;;;4975200;28;20419;-80
2022/10/16 00:46:21;;;;;;;1.30;1.23;;;20.00;49.50;;;;;;4971439;28;20448;-80
2022/10/16 00:49:16;;;;;;;1.30;1.10;;;19.70;50.40;;;;;;4972037;28;20945;-79
2022/10/16 00:51:48;;;;;;;1.30;1.30;;;19.90;50.00;;;;;;4970577;28;20477;-77
2022/10/16 00:54:18;;;;;;;1.27;1.20;;;19.90;49.40;;;;;;4976691;28;20792;-79
2022/10/16 00:56:45;;;;;;;1.30;1.30;;;20.00;48.90;;;;;;4975967;28;20530;-79
2022/10/16 00:59:28;;;;;;;1.30;1.20;;;20.00;48.90;;;;;;4976545;28;20857;-79
2022/10/16 01:01:55;;;;;;;1.30;1.27;;;20.00;49.10;;;;;;4976038;28;20893;-78
2022/10/16 01:04:21;;;;;;;1.30;1.20;;;20.00;49.30;;;;;;4977886;28;20429;-79
2022/10/16 01:07:04;;;;;;;1.30;1.27;;;20.10;49.10;;;;;;4977472;28;20443;-79
2022/10/16 01:09:59;;;;;;;1.30;1.13;;;20.10;49.40;;;;;;4980759;28;20503;-79
2022/10/16 01:12:38;;;;;;;1.40;1.40;;;20.30;48.90;;;;;;4980132;28;20502;-79
2022/10/16 01:15:22;;;;;;;1.30;1.10;;;20.40;47.00;;;;;;4980303;28;20440;-79
2022/10/16 01:18:01;;;;;;;1.57;1.50;;;20.40;48.80;;;;;;4979000;28;20437;-78
2022/10/16 01:20:31;;;;;;;1.30;1.13;;;20.30;49.50;;;;;;4974169;28;20492;-80
2022/10/16 01:23:05;;;;;;;1.30;1.20;;;20.20;49.30;;;;;;4975158;28;20481;-79
2022/10/16 01:25:43;;;;;;;1.30;1.10;;;20.10;49.20;;;;;;4976234;28;20522;-80
2022/10/16 01:28:11;;;;;;;1.90;1.70;;;19.80;49.80;;;;;;4975615;28;20438;-80
2022/10/16 01:30:40;;;;;;;1.57;1.50;;;19.80;51.20;;;;;;4973852;28;20447;-80
2022/10/16 01:33:14;;;;;;;1.23;1.00;;;19.80;50.50;;;;;;4989411;28;20557;-76
2022/10/16 01:35:45;;;;;;;1.30;1.20;;;19.90;50.70;;;;;;4980486;28;20466;-77
2022/10/16 01:38:14;;;;;;;1.23;1.10;;;19.90;50.70;;;;;;4980652;28;20437;-78
2022/10/16 01:40:46;;;;;;;2.30;1.40;;;19.80;50.60;;;;;;4979996;28;20467;-77
2022/10/16 01:43:17;;;;;;;1.60;1.50;;;19.80;51.30;;;;;;4979026;28;20434;-78
2022/10/16 01:45:45;;;;;;;1.40;1.40;;;19.70;51.60;;;;;;4979387;28;20440;-79
2022/10/16 01:48:14;;;;;;;1.33;1.30;;;19.80;51.00;;;;;;4977494;28;20478;-80
2022/10/16 01:50:42;;;;;;;1.30;1.20;;;19.80;51.50;;;;;;4978377;28;20446;-79
2022/10/16 01:53:12;;;;;;;1.30;1.20;;;19.80;51.80;;;;;;4975755;28;20616;-78
2022/10/16 01:55:44;;;;;;;1.20;1.20;;;19.80;51.50;;;;;;4978261;28;20801;-78
2022/10/16 01:58:11;;;;;;;1.30;1.23;;;19.70;52.60;;;;;;4975696;28;20931;-78
2022/10/16 02:00:40;;;;;;;1.40;1.30;;;19.70;52.20;;;;;;4974068;28;20442;-80
2022/10/16 02:03:07;;;;;;;1.30;1.20;;;19.60;52.60;;;;;;4973714;28;20446;-76
2022/10/16 02:05:40;;;;;;;1.30;1.20;;;19.70;52.60;;;;;;4975550;28;20436;-80
2022/10/16 02:08:06;;;;;;;1.70;1.30;;;19.60;53.00;;;;;;4975581;28;20482;-79
2022/10/16 02:10:34;;;;;;;1.30;1.23;;;19.60;53.60;;;;;;4975077;28;20555;-78
2022/10/16 02:13:02;;;;;;;1.30;1.27;;;19.60;53.20;;;;;;4972767;28;20635;-78
2022/10/16 02:15:27;;;;;;;1.77;1.33;;;19.70;52.80;;;;;;4969211;28;20434;-80
2022/10/16 02:17:53;;;;;;;1.30;1.13;;;19.70;52.90;;;;;;4973960;28;20446;-79
2022/10/16 02:20:28;;;;;;;1.40;1.20;;;19.70;53.10;;;;;;4973942;28;20186;-80
2022/10/16 02:22:56;;;;;;;1.30;1.10;;;19.70;52.80;;;;;;4973770;28;20731;-79
2022/10/16 02:25:31;;;;;;;1.30;1.30;;;19.70;52.90;;;;;;4971154;28;20447;-80
2022/10/16 02:28:06;;;;;;;1.30;1.23;;;19.80;52.80;;;;;;4974214;28;20441;-80
2022/10/16 02:30:47;;;;;;;1.40;1.40;;;19.70;52.80;;;;;;4970328;28;20821;-80
2022/10/16 02:33:15;;;;;;;1.50;1.47;;;19.70;52.30;;;;;;4974136;28;20439;-80
2022/10/16 02:35:42;;;;;;;1.80;1.60;;;19.70;52.90;;;;;;4976669;28;20431;-79
2022/10/16 02:38:09;;;;;;;2.13;1.70;;;22.40;56.60;;;;;;4976073;28;20516;-79
2022/10/16 02:40:35;;;;;;;1.30;1.20;;;19.20;55.50;;;;;;4975692;28;20489;-78
2022/10/16 02:43:03;;;;;;;1.33;1.27;;;18.90;56.30;;;;;;4973421;28;20908;-76
2022/10/16 02:45:29;;;;;;;1.40;1.40;;;18.90;56.90;;;;;;4964076;28;20522;-78
2022/10/16 02:47:55;;;;;;;1.40;1.10;;;19.10;56.40;;;;;;4973791;28;20513;-77
2022/10/16 02:50:21;;;;;;;1.30;1.30;;;19.40;55.20;;;;;;4973300;28;20191;-78
2022/10/16 02:52:46;;;;;;;1.30;1.20;;;19.50;54.30;;;;;;4969222;28;20211;-78
2022/10/16 02:55:12;;;;;;;1.50;1.40;;;19.60;53.70;;;;;;4976683;28;20440;-78
2022/10/16 02:57:40;;;;;;;1.30;1.10;;;19.50;53.70;;;;;;4972909;28;20210;-78
2022/10/16 03:00:09;;;;;;;1.40;1.30;;;19.40;54.30;;;;;;4971709;28;20188;-78
2022/10/16 03:02:35;;;;;;;1.50;1.40;;;19.30;54.80;;;;;;4966527;28;20985;-78
2022/10/16 03:05:01;;;;;;;1.47;1.30;;;19.30;54.80;;;;;;4976686;28;20479;-78
2022/10/16 03:07:26;;;;;;;1.80;1.40;;;19.50;53.80;;;;;;4972234;28;20237;-78
2022/10/16 03:09:52;;;;;;;1.60;1.20;;;19.50;53.60;;;;;;4978191;28;20219;-78
2022/10/16 03:12:17;;;;;;;1.30;1.10;;;19.40;53.90;;;;;;4975017;28;20203;-79
2022/10/16 03:14:43;;;;;;;1.30;1.20;;;19.30;54.00;;;;;;4974451;28;20185;-79
2022/10/16 03:17:09;;;;;;;2.40;1.80;;;19.10;55.10;;;;;;4973618;28;20187;-78
2022/10/16 03:19:35;;;;;;;1.43;1.30;;;19.00;56.20;;;;;;4975844;28;20533;-79
2022/10/16 03:22:01;;;;;;;1.30;1.20;;;18.90;56.90;;;;;;4975355;28;20294;-78
2022/10/16 03:24:26;;;;;;;1.23;1.10;;;18.60;58.00;;;;;;4974458;28;20872;-79
2022/10/16 03:26:52;;;;;;;1.30;1.10;;;18.60;58.50;;;;;;4975122;28;20189;-78
2022/10/16 03:29:18;;;;;;;1.40;1.30;;;19.00;56.90;;;;;;4973635;28;20197;-79
2022/10/16 03:31:43;;;;;;;1.27;1.17;;;19.20;55.70;;;;;;4975714;28;20604;-75
2022/10/16 03:34:09;;;;;;;1.50;1.17;;;19.30;55.20;;;;;;4976202;28;20249;-78
2022/10/16 03:36:34;;;;;;;1.40;1.20;;;19.30;54.50;;;;;;4979445;28;20174;-79
2022/10/16 03:39:00;;;;;;;1.30;1.30;;;19.40;54.40;;;;;;4973314;28;20606;-78
2022/10/16 03:41:26;;;;;;;1.63;1.40;;;19.40;54.50;;;;;;4974367;28;20202;-77
2022/10/16 03:43:51;;;;;;;1.30;1.10;;;19.30;54.80;;;;;;4974668;28;20182;-79
2022/10/16 03:46:17;;;;;;;1.30;1.20;;;19.40;54.50;;;;;;4977077;28;20190;-78
2022/10/16 03:48:42;;;;;;;1.30;1.30;;;19.30;54.60;;;;;;4974308;28;20197;-76
2022/10/16 03:51:08;;;;;;;1.60;1.30;;;19.30;54.50;;;;;;4975396;28;20199;-78
2022/10/16 03:53:33;;;;;;;1.40;1.23;;;19.40;55.30;;;;;;4974553;28;20270;-79
2022/10/16 03:55:59;;;;;;;3.00;1.60;;;19.30;54.80;;;;;;4974962;28;20669;-79
2022/10/16 03:58:25;;;;;;;1.40;1.27;;;19.40;54.60;;;;;;4979929;28;20239;-78
2022/10/16 04:00:51;;;;;;;1.87;1.67;;;19.40;54.00;;;;;;4972928;28;20457;-77
2022/10/16 04:03:18;;;;;;;1.30;1.20;;;19.10;55.90;;;;;;4974292;28;20178;-79
2022/10/16 04:05:44;;;;;;;1.40;1.40;;;19.10;56.40;;;;;;4974213;28;20183;-79
2022/10/16 04:08:09;;;;;;;1.30;1.20;;;19.20;55.70;;;;;;4974822;28;20418;-79
2022/10/16 04:10:35;;;;;;;1.30;1.20;;;19.30;55.20;;;;;;4972231;28;20649;-77
2022/10/16 04:13:00;;;;;;;2.13;1.27;;;19.40;54.10;;;;;;4979511;28;20302;-79
2022/10/16 04:15:26;;;;;;;1.40;1.37;;;19.40;54.10;;;;;;4973467;28;20182;-77
2022/10/16 04:17:52;;;;;;;1.77;1.30;;;19.40;54.30;;;;;;4974125;28;20210;-78
2022/10/16 04:20:18;;;;;;;1.40;1.30;;;19.30;54.00;;;;;;4973696;28;20607;-78
2022/10/16 04:22:44;;;;;;;1.40;1.27;;;19.40;54.30;;;;;;4973213;28;21015;-79
2022/10/16 04:25:11;;;;;;;1.37;1.33;;;19.20;54.70;;;;;;4974284;28;20186;-77
2022/10/16 04:27:36;;;;;;;1.30;1.20;;;19.20;55.50;;;;;;4973452;28;20328;-79
2022/10/16 04:30:02;;;;;;;1.30;1.20;;;19.40;54.10;;;;;;4981012;28;20965;-78
2022/10/16 04:32:28;;;;;;;1.30;1.20;;;19.30;55.00;;;;;;4973448;28;20238;-78
2022/10/16 04:34:53;;;;;;;1.30;1.23;;;19.30;54.90;;;;;;4980402;28;20257;-79
2022/10/16 04:37:23;;;;;;;2.07;1.50;;;19.30;54.40;;;;;;4972461;28;20185;-79
2022/10/16 04:39:48;;;;;;;1.50;1.50;;;19.20;55.00;;;;;;4974058;28;20179;-78
2022/10/16 04:42:14;;;;;;;1.40;1.20;;;19.30;55.30;;;;;;4972107;28;20461;-77
2022/10/16 04:44:39;;;;;;;1.70;1.40;;;19.20;55.00;;;;;;4973264;28;20185;-79
2022/10/16 04:47:05;;;;;;;1.47;1.40;;;19.00;56.00;;;;;;4983834;28;20671;-78
2022/10/16 04:49:30;;;;;;;1.30;1.20;;;19.00;56.50;;;;;;4978146;28;20225;-78
2022/10/16 04:51:57;;;;;;;1.40;1.30;;;19.00;56.30;;;;;;4977949;28;20226;-77
2022/10/16 04:54:22;;;;;;;1.40;1.10;;;19.20;55.20;;;;;;4977368;28;20188;-78
2022/10/16 04:56:50;;;;;;;1.40;1.20;;;19.10;55.40;;;;;;4979189;28;20798;-78
2022/10/16 04:59:16;;;;;;;1.30;1.30;;;19.10;55.50;;;;;;4983557;28;20209;-78
2022/10/16 05:01:43;;;;;;;1.50;1.37;;;19.20;55.60;;;;;;4976263;28;21173;-78
2022/10/16 05:04:09;;;;;;;1.30;1.20;;;19.30;55.10;;;;;;4977597;28;20488;-78
2022/10/16 05:06:34;;;;;;;1.30;1.30;;;19.30;55.10;;;;;;4979851;28;20418;-78
2022/10/16 05:09:00;;;;;;;1.20;1.10;;;19.30;54.90;;;;;;4977913;28;20826;-85
2022/10/16 05:11:26;;;;;;;1.70;1.50;;;19.20;55.30;;;;;;4976121;28;20210;-85
2022/10/16 05:13:51;;;;;;;1.30;1.20;;;19.30;54.60;;;;;;4975606;28;20558;-85
2022/10/16 05:16:17;;;;;;;1.27;1.20;;;19.30;54.80;;;;;;4975469;28;20193;-85
2022/10/16 05:18:42;;;;;;;1.30;1.03;;;19.20;54.90;;;;;;4976445;28;20201;-85
2022/10/16 05:21:08;;;;;;;1.73;1.43;;;19.20;55.00;;;;;;4976785;28;20230;-85
2022/10/16 05:23:34;;;;;;;1.30;1.20;;;19.00;55.40;;;;;;4976835;28;20183;-85
2022/10/16 05:26:00;;;;;;;1.20;1.10;;;19.10;55.10;;;;;;4976771;28;20206;-78
2022/10/16 05:28:27;;;;;;;1.40;1.33;;;19.00;55.20;;;;;;4995758;28;20183;-78
2022/10/16 05:30:53;;;;;;;1.30;1.20;;;18.40;58.60;;;;;;4979570;28;20199;-78
2022/10/16 05:33:24;;;;;;;1.50;1.40;;;18.20;60.80;;;;;;4979118;28;20476;-78
2022/10/16 05:35:50;;;;;;;1.60;1.30;;;18.50;59.40;;;;;;4977946;28;20441;-78
2022/10/16 05:38:17;;;;;;;2.10;1.67;;;18.30;59.40;;;;;;4979933;28;20425;-78
2022/10/16 05:40:49;;;;;;;1.40;1.30;;;18.40;59.60;;;;;;4981278;28;20430;-80
2022/10/16 05:43:15;;;;;;;1.40;1.20;;;18.60;58.30;;;;;;4981444;28;20450;-80
2022/10/16 05:45:41;;;;;;;1.30;1.20;;;18.30;59.10;;;;;;4982991;28;20473;-79
2022/10/16 05:48:06;;;;;;;1.30;1.20;;;18.60;57.70;;;;;;4976550;28;20191;-79
2022/10/16 05:50:32;;;;;;;1.30;1.10;;;18.70;57.30;;;;;;4983112;28;20182;-79
2022/10/16 05:52:57;;;;;;;1.27;1.10;;;19.00;55.90;;;;;;4981913;28;20210;-77
2022/10/16 05:55:23;;;;;;;1.40;1.30;;;18.90;56.30;;;;;;4978723;28;20182;-79
2022/10/16 05:57:48;;;;;;;1.40;1.30;;;19.10;55.30;;;;;;4977374;28;20211;-79
2022/10/16 06:00:14;;;;;;;1.30;1.20;;;19.10;55.10;;;;;;4978758;28;20182;-78
2022/10/16 06:02:40;;;;;;;1.30;1.20;;;19.00;55.60;;;;;;4978261;28;20646;-78
2022/10/16 06:05:06;;;;;;;1.30;1.30;;;18.70;56.70;;;;;;4979471;28;20628;-79
2022/10/16 06:07:35;;;;;;;1.63;1.50;;;18.60;58.00;;;;;;4978364;28;20186;-78
2022/10/16 06:10:01;;;;;;;1.47;1.40;;;18.70;57.20;;;;;;4978927;28;20785;-78
2022/10/16 06:12:26;;;;;;;1.30;1.20;;;18.80;56.80;;;;;;4978957;28;20473;-79
2022/10/16 06:14:52;;;;;;;1.83;1.70;;;18.90;56.90;;;;;;4978918;28;20183;-79
2022/10/16 06:17:18;;;;;;;1.30;1.20;;;19.00;56.90;;;;;;4977868;28;20210;-78
2022/10/16 06:19:43;;;;;;;1.23;1.17;;;18.90;56.90;;;;;;4983275;28;20192;-79
2022/10/16 06:22:09;;;;;;;1.43;1.27;;;19.00;56.40;;;;;;4981652;28;20229;-79
2022/10/16 06:24:35;;;;;;;1.57;1.40;;;19.10;56.30;;;;;;4978881;28;20530;-79
2022/10/16 06:27:01;;;;;;;1.30;1.20;;;19.30;55.00;;;;;;4978852;28;20449;-78
2022/10/16 06:29:26;;;;;;;1.50;1.40;;;19.20;55.70;;;;;;4978831;28;20281;-79
2022/10/16 06:31:52;;;;;;;1.30;1.20;;;19.30;55.50;;;;;;4979317;28;20211;-79
2022/10/16 06:34:18;;;;;;;1.23;1.20;;;18.90;56.90;;;;;;4977491;28;20649;-80
2022/10/16 06:36:44;;;;;;;1.63;1.57;;;19.00;57.00;;;;;;4976705;28;20489;-78
2022/10/16 06:39:09;;;;;;;1.20;1.20;;;19.10;57.00;;;;;;4977343;28;20192;-79
2022/10/16 06:41:35;;;;;;;1.43;1.30;;;19.20;55.90;;;;;;4977164;28;20230;-78
2022/10/16 06:44:01;;;;;;;1.27;1.13;;;19.30;56.00;;;;;;4976558;28;20213;-78
2022/10/16 06:46:27;;;;;;;1.40;1.40;;;19.30;55.70;;;;;;4975184;28;20663;-76
2022/10/16 06:48:53;;;;;;;1.30;1.30;;;19.10;56.90;;;;;;4972782;28;20439;-76
2022/10/16 06:51:21;;;;;;;1.20;1.20;;;19.30;55.50;;;;;;4970964;28;20469;-76
2022/10/16 06:53:52;;;;;;;1.97;1.43;;;19.50;55.80;;;;;;4982981;28;20476;-76
2022/10/16 06:56:25;;;;;;;1.30;1.10;;;19.60;55.00;;;;;;4974236;28;20411;-76
2022/10/16 06:58:52;;;;;;;1.20;1.20;;;19.70;54.70;;;;;;4973381;28;20467;-75
2022/10/16 07:01:19;;;;;;;1.97;1.60;;;19.80;55.30;;;;;;4973409;28;20475;-78
2022/10/16 07:03:46;;;;;;;1.27;1.20;;;19.70;56.30;;;;;;4975485;28;20934;-79
2022/10/16 07:06:14;;;;;;;1.40;1.30;;;19.80;55.70;;;;;;4978145;28;20429;-77
2022/10/16 07:08:42;;;;;;;1.40;1.37;;;19.90;55.40;;;;;;4973628;28;20462;-78
2022/10/16 07:11:10;;;;;;;1.30;1.27;;;19.90;55.90;;;;;;4974111;28;20814;-78
2022/10/16 07:13:37;;;;;;;1.40;1.30;;;19.80;55.70;;;;;;4972277;28;20833;-77
2022/10/16 07:16:09;;;;;;;1.73;1.53;;;19.10;58.40;;;;;;4973279;28;20446;-79
2022/10/16 07:18:36;;;;;;;1.40;1.30;;;19.30;58.40;;;;;;4976588;28;20421;-78
2022/10/16 07:21:12;;;;;;;1.67;1.50;;;19.60;57.50;;;;;;4972555;28;20992;-75
2022/10/16 07:23:38;;;;;;;1.40;1.40;;;19.70;56.00;;;;;;4977273;28;20537;-78
2022/10/16 07:26:05;;;;;;;1.30;1.30;;;19.70;56.10;;;;;;4978117;28;20478;-79
2022/10/16 07:28:31;;;;;;;1.30;1.20;;;19.80;56.00;;;;;;4978720;28;20192;-80
2022/10/16 07:31:02;;;;;;;1.40;1.37;;;20.00;54.90;;;;;;4978479;28;20451;-78
2022/10/16 07:33:28;;;;;;;1.70;1.40;;;19.90;54.50;;;;;;4977207;28;20587;-79
2022/10/16 07:35:54;;;;;;;1.27;1.10;;;19.90;55.50;;;;;;4972650;28;20439;-77
2022/10/16 07:38:21;;;;;;;1.43;1.30;;;19.90;55.40;;;;;;4973971;28;20418;-81
2022/10/16 07:40:47;;;;;;;1.97;1.63;;;20.10;55.00;;;;;;4971405;28;20535;-82
2022/10/16 07:43:14;;;;;;;1.23;1.17;;;20.30;54.00;;;;;;4965559;28;20436;-81
2022/10/16 07:45:48;;;;;;;1.40;1.20;;;20.50;54.10;;;;;;4973077;28;20458;-81
2022/10/16 07:48:14;;;;;;;1.30;1.30;;;20.60;54.00;;;;;;4972433;28;20443;-81
2022/10/16 07:50:41;;;;;;;1.33;1.33;;;20.70;52.10;;;;;;4973448;28;20429;-81
2022/10/16 07:53:07;;;;;;;1.20;1.10;;;20.60;50.60;;;;;;4975462;28;20472;-81
2022/10/16 07:55:32;;;;;;;1.30;1.20;;;20.40;52.20;;;;;;4973703;28;20490;-81
2022/10/16 07:57:58;;;;;;;1.30;1.30;;;20.50;52.00;;;;;;4973172;28;20422;-81
2022/10/16 08:00:24;;;;;;;1.30;1.10;;;20.90;50.70;;;;;;4973413;28;20178;-81
2022/10/16 08:02:49;;;;;;;1.20;1.20;;;21.10;49.00;;;;;;4973042;28;20194;-81
2022/10/16 08:05:15;;;;;;;1.30;1.20;;;21.30;48.20;;;;;;4971617;28;20196;-80
2022/10/16 08:07:40;;;;;;;1.40;1.33;;;21.50;47.20;;;;;;4973709;28;20190;-80
2022/10/16 08:10:06;;;;;;;1.40;1.40;;;21.50;46.50;;;;;;4973258;28;20216;-81
2022/10/16 08:12:32;;;;;;;1.43;1.30;;;21.60;46.40;;;;;;4987925;28;20261;-81
2022/10/16 08:14:57;;;;;;;1.37;1.30;;;21.80;45.60;;;;;;4972584;28;20449;-81
2022/10/16 08:17:23;;;;;;;1.90;1.60;;;21.60;45.80;;;;;;4973492;28;20544;-80
2022/10/16 08:19:49;;;;;;;1.90;1.50;;;21.20;48.10;;;;;;4971168;28;20195;-81
2022/10/16 08:22:15;;;;;;;1.40;1.30;;;21.30;49.10;;;;;;4971773;28;20214;-81
2022/10/16 08:24:40;;;;;;;1.60;1.50;;;21.40;48.50;;;;;;4972987;28;20207;-81
2022/10/16 08:27:06;;;;;;;1.90;1.60;;;21.60;48.30;;;;;;4972853;28;20471;-81
2022/10/16 08:29:32;;;;;;;1.30;1.30;;;21.10;49.30;;;;;;4973375;28;20224;-80
2022/10/16 08:31:58;;;;;;;1.30;1.20;;;20.50;52.00;;;;;;4972975;28;20461;-81
2022/10/16 08:34:24;;;;;;;1.40;1.20;;;20.50;54.50;;;;;;4976147;28;20832;-80
2022/10/16 08:36:49;;;;;;;1.30;1.30;;;20.70;52.80;;;;;;4973386;28;20534;-81
2022/10/16 08:39:15;;;;;;;1.60;1.40;;;20.50;53.90;;;;;;4972626;28;20188;-81
2022/10/16 08:41:56;;;;;;;2.57;1.30;;;21.10;50.90;;;;;;4973003;28;20259;-81
2022/10/16 08:44:27;;;;;;;1.30;1.20;;;21.50;49.70;;;;;;4965531;28;20427;-81
2022/10/16 08:47:00;;;;;;;1.30;1.30;;;21.70;49.10;;;;;;4987279;28;20867;-81
2022/10/16 08:49:27;;;;;;;1.43;1.27;;;21.80;48.80;;;;;;4972745;28;20936;-80
2022/10/16 08:51:52;;;;;;;1.60;1.30;;;22.00;47.30;;;;;;4972667;28;20475;-81
2022/10/16 08:54:40;;;;;;;1.30;1.20;;;22.30;47.50;;;;;;4972673;28;20428;-79
2022/10/16 08:57:16;;;;;;;1.23;1.10;;;22.80;46.40;;;;;;4972252;28;20190;-81
2022/10/16 08:59:43;;;;;;;1.70;1.50;;;23.00;45.40;;;;;;4972084;28;20756;-81
2022/10/16 09:02:40;;;;;;;1.40;1.30;;;23.10;44.50;;;;;;4971521;28;20809;-81
2022/10/16 09:05:17;;;;;;;1.30;1.30;;;23.00;44.40;;;;;;4970796;28;20444;-81
2022/10/16 09:08:06;;;;;;;2.10;1.40;;;22.80;44.90;;;;;;4971833;28;20436;-81
2022/10/16 09:10:54;;;;;;;1.30;1.10;;;23.00;45.70;;;;;;4964363;28;20432;-81
2022/10/16 09:13:31;;;;;;;1.50;1.37;;;23.20;44.00;;;;;;4971535;28;20524;-81
2022/10/16 09:16:24;;;;;;;2.10;1.50;;;23.40;43.20;;;;;;4986913;28;20482;-81
2022/10/16 09:19:08;;;;;;;1.60;1.40;;;23.40;42.30;;;;;;4966403;28;20459;-81
2022/10/16 09:21:43;;;;;;;1.40;1.40;;;23.40;42.50;;;;;;4976317;28;20472;-81
2022/10/16 09:24:14;;;;;;;1.80;1.53;;;23.60;42.30;;;;;;4977388;28;20439;-81
2022/10/16 09:26:39;;;;;;;1.83;1.30;;;23.20;43.20;;;;;;4966406;28;20424;-81
2022/10/16 09:29:05;;;;;;;1.40;1.30;;;22.70;44.20;;;;;;4973513;28;20434;-79
2022/10/16 09:31:30;;;;;;;1.40;1.30;;;22.70;44.20;;;;;;4978434;28;20281;-79
2022/10/16 09:34:05;;;;;;;1.30;1.20;;;22.60;45.00;;;;;;4975920;28;20175;-81
2022/10/16 09:36:42;;;;;;;3.50;1.40;;;22.80;45.50;;;;;;4975411;28;20178;-80
2022/10/16 09:39:11;;;;;;;1.30;1.30;;;23.00;43.20;;;;;;4975823;28;20429;-81
2022/10/16 09:41:41;;;;;;;1.60;1.37;;;23.10;44.00;;;;;;4975159;28;20992;-80
2022/10/16 09:44:24;;;;;;;1.40;1.23;;;23.50;44.20;;;;;;4976429;28;20433;-81
2022/10/16 09:47:23;;;;;;;1.30;1.13;;;23.80;39.40;;;;;;4980316;28;20437;-80
2022/10/16 09:50:19;;;;;;;1.50;1.20;;;23.90;41.20;;;;;;4963939;28;20429;-81
2022/10/16 09:52:44;;;;;;;1.30;1.27;;;24.10;40.90;;;;;;4975297;28;20537;-81
2022/10/16 09:55:15;;;;;;;1.40;1.27;;;24.20;38.50;;;;;;4976813;28;20457;-80
2022/10/16 09:57:51;;;;;;;2.90;1.30;;;24.40;37.70;;;;;;4979957;28;20250;-80
2022/10/16 10:00:18;;;;;;;1.30;1.20;;;24.40;37.90;;;;;;4978908;28;20446;-81
2022/10/16 10:02:44;;;;;;;1.30;1.30;;;24.50;38.40;;;;;;4980053;28;20589;-80
2022/10/16 10:05:22;;;;;;;1.50;1.30;;;24.50;37.20;;;;;;4976874;28;20426;-80
2022/10/16 10:08:05;;;;;;;1.40;1.40;;;24.50;36.60;;;;;;4968227;28;20528;-81
2022/10/16 10:10:34;;;;;;;1.60;1.27;;;24.60;37.30;;;;;;4970293;28;20427;-80
2022/10/16 10:13:00;;;;;;;1.70;1.50;;;24.70;36.40;;;;;;4971103;28;20516;-81
2022/10/16 10:15:32;;;;;;;3.27;1.70;;;24.60;36.30;;;;;;4969309;28;20896;-81
2022/10/16 10:17:58;;;;;;;1.30;1.23;;;24.70;36.80;;;;;;4970200;28;20473;-81
2022/10/16 10:20:29;;;;;;;1.40;1.37;;;24.60;36.50;;;;;;4968999;28;21127;-81
2022/10/16 10:22:55;;;;;;;2.00;1.40;;;24.50;36.40;;;;;;4968319;28;20234;-80
2022/10/16 10:25:36;;;;;;;1.30;1.20;;;24.50;36.70;;;;;;4969550;28;20428;-80
2022/10/16 10:28:27;;;;;;;1.40;1.20;;;24.60;36.50;;;;;;4971303;28;20428;-81
2022/10/16 10:31:13;;;;;;;1.40;1.30;;;24.90;37.10;;;;;;4967854;28;20443;-78
2022/10/16 10:33:49;;;;;;;1.40;1.30;;;25.50;34.60;;;;;;4970286;28;20440;-78
2022/10/16 10:36:30;;;;;;;1.40;1.37;;;25.80;34.40;;;;;;4971169;28;20425;-78
2022/10/16 10:39:18;;;;;;;1.50;1.30;;;26.70;31.20;;;;;;4970550;28;20406;-78
2022/10/16 10:42:18;;;;;;;1.60;1.30;;;27.20;29.60;;;;;;4967927;28;20488;-78
2022/10/16 10:45:05;;;;;;;2.03;1.53;;;27.30;31.00;;;;;;4971666;28;20441;-79
2022/10/16 10:47:37;;;;;;;1.30;1.20;;;27.50;28.10;;;;;;4973754;28;20442;-79
2022/10/16 10:50:18;;;;;;;1.30;1.20;;;27.90;28.10;;;;;;4985235;28;20445;-80
2022/10/16 10:53:31;;;;;;;1.67;1.30;;;27.50;26.20;;;;;;4961423;28;20476;-78
2022/10/16 10:56:20;;;;;;;1.20;1.13;;;27.40;28.60;;;;;;4957169;28;20524;-78
2022/10/16 10:58:48;;;;;;;1.30;1.20;;;27.20;25.60;;;;;;4968255;28;20406;-78
2022/10/16 11:01:26;;;;;;;1.80;1.50;;;27.00;24.80;;;;;;4968451;28;20942;-78
2022/10/16 11:04:10;;;;;;;1.40;1.20;;;26.80;26.10;;;;;;4973586;28;20448;-78
2022/10/16 11:06:59;;;;;;;1.23;1.20;;;27.00;25.80;;;;;;4968131;28;21586;-79
2022/10/16 11:09:34;;;;;;;2.53;1.30;;;28.10;27.50;;;;;;4987468;28;20444;-78
2022/10/16 11:12:18;;;;;;;1.20;1.20;;;26.20;27.00;;;;;;4970959;28;20457;-79
2022/10/16 11:15:00;;;;;;;1.30;1.30;;;26.10;25.60;;;;;;4976777;28;20423;-78
2022/10/16 11:17:33;;;;;;;1.53;1.30;;;26.60;24.60;;;;;;4972833;28;20932;-78
2022/10/16 11:20:21;;;;;;;1.40;1.37;;;26.40;25.40;;;;;;4973212;28;20469;-77
2022/10/16 11:22:53;;;;;;;1.20;1.20;;;26.20;24.20;;;;;;4966933;28;20477;-77
2022/10/16 11:25:23;;;;;;;1.30;1.30;;;26.70;24.20;;;;;;4972711;28;20937;-78
2022/10/16 11:27:56;;;;;;;1.30;1.20;;;25.90;24.90;;;;;;4973324;28;20450;-78
2022/10/16 11:30:25;;;;;;;1.77;1.27;;;25.60;25.70;;;;;;4979682;28;20448;-79
2022/10/16 11:33:08;;;;;;;1.30;1.30;;;26.00;25.50;;;;;;4972933;28;20568;-78
2022/10/16 11:36:00;;;;;;;1.50;1.40;;;26.30;24.40;;;;;;4965611;28;20466;-78
2022/10/16 11:39:00;;;;;;;1.30;1.27;;;26.50;24.80;;;;;;4972481;28;20911;-81
2022/10/16 11:41:54;;;;;;;5.77;1.30;;;26.70;23.70;;;;;;4972550;28;20449;-78
2022/10/16 11:44:34;;;;;;;1.30;1.30;;;26.70;24.30;;;;;;4978613;28;20808;-78
2022/10/16 11:47:24;;;;;;;1.30;1.10;;;27.10;23.90;;;;;;4972888;28;20421;-79
2022/10/16 11:50:17;;;;;;;1.30;1.23;;;26.70;24.00;;;;;;4967052;28;20414;-79
2022/10/16 11:53:11;;;;;;;1.40;1.30;;;26.70;24.90;;;;;;4972486;28;20469;-78
2022/10/16 11:55:40;;;;;;;1.53;1.40;;;26.50;25.30;;;;;;4964878;28;20509;-78
2022/10/16 11:58:20;;;;;;;1.87;1.60;;;26.30;25.70;;;;;;4987360;28;20429;-79
2022/10/16 12:01:10;;;;;;;1.60;1.30;;;27.40;24.20;;;;;;4970909;28;20841;-78
2022/10/16 12:03:37;;;;;;;1.33;1.17;;;27.70;23.30;;;;;;4972205;28;20436;-78
2022/10/16 12:06:24;;;;;;;1.30;1.20;;;27.70;22.90;;;;;;4972583;28;20488;-78
2022/10/16 12:08:51;;;;;;;1.30;1.20;;;27.60;22.70;;;;;;4965774;28;20430;-78
2022/10/16 12:11:28;;;;;;;1.30;1.23;;;27.50;23.30;;;;;;4972080;28;20475;-78
2022/10/16 12:14:12;;;;;;;1.30;1.30;;;27.80;23.10;;;;;;4966002;28;20787;-78
2022/10/16 12:16:50;;;;;;;1.77;1.53;;;27.70;23.00;;;;;;4971401;28;20433;-78
2022/10/16 12:19:17;;;;;;;1.80;1.40;;;28.20;23.30;;;;;;4972033;28;20426;-78
2022/10/16 12:21:44;;;;;;;1.83;1.40;;;27.10;23.00;;;;;;4971793;28;20812;-77
2022/10/16 12:24:36;;;;;;;1.70;1.33;;;26.80;24.80;;;;;;4972183;28;20429;-79
2022/10/16 12:27:04;;;;;;;1.60;1.30;;;27.40;25.00;;;;;;4966768;28;20992;-78
2022/10/16 12:29:44;;;;;;;1.40;1.30;;;27.30;24.80;;;;;;4971731;28;20492;-79
2022/10/16 12:32:32;;;;;;;1.30;1.10;;;27.40;24.10;;;;;;4971731;28;21099;-81
2022/10/16 12:34:59;;;;;;;1.30;1.20;;;26.80;25.00;;;;;;4974171;28;21170;-78
2022/10/16 12:37:29;;;;;;;1.30;1.30;;;27.10;23.90;;;;;;4972144;28;20430;-78
2022/10/16 12:39:56;;;;;;;1.30;1.30;;;26.80;24.60;;;;;;4971968;28;20477;-78
2022/10/16 12:42:28;;;;;;;1.50;1.50;;;26.30;25.60;;;;;;4971862;28;20449;-80
2022/10/16 12:44:54;;;;;;;1.60;1.30;;;26.20;25.70;;;;;;4971699;28;20774;-78
2022/10/16 12:47:51;;;;;;;1.30;1.30;;;26.40;25.50;;;;;;4972679;28;20527;-79
2022/10/16 12:50:40;;;;;;;1.40;1.30;;;26.80;24.90;;;;;;4970587;28;20955;-78
2022/10/16 12:53:21;;;;;;;2.03;1.40;;;27.00;24.90;;;;;;4965913;28;20835;-80
2022/10/16 12:56:07;;;;;;;1.43;1.33;;;27.00;24.90;;;;;;4971824;28;20471;-78
2022/10/16 12:58:48;;;;;;;1.23;1.20;;;27.20;24.30;;;;;;4967115;28;20425;-78
2022/10/16 13:02:02;;;;;;;1.30;1.20;;;27.20;24.70;;;;;;4972260;28;20448;-78
2022/10/16 13:04:42;;;;;;;1.50;1.40;;;27.20;24.80;;;;;;4983358;28;20536;-78
2022/10/16 13:07:34;;;;;;;1.30;1.20;;;27.00;24.60;;;;;;4973111;28;20425;-78
2022/10/16 13:10:05;;;;;;;1.50;1.40;;;27.40;24.10;;;;;;4975821;28;20409;-78